createdAt,value
2019-03-22T00:00:56.420Z,102480.00
2019-03-22T00:03:28.678Z,102473.00
2019-03-22T00:06:01.039Z,102460.00
2019-03-22T00:09:15.011Z,102462.00
2019-03-22T00:11:47.957Z,102464.00
2019-03-22T00:14:20.258Z,102462.00
2019-03-22T00:16:53.704Z,102457.00
2019-03-22T00:19:26.035Z,102448.00
2019-03-22T00:21:59.310Z,102451.00
2019-03-22T00:24:31.651Z,102448.00
2019-03-22T00:27:16.461Z,102438.00
2019-03-22T00:29:41.773Z,102444.00
2019-03-22T00:32:14.044Z,102444.00
2019-03-22T00:34:46.878Z,102448.00
2019-03-22T00:37:24.506Z,102446.00
2019-03-22T00:39:58.708Z,102451.00
2019-03-22T00:42:31.204Z,102451.00
2019-03-22T00:45:03.734Z,102446.00
2019-03-22T00:47:38.941Z,102448.00
2019-03-22T00:50:12.318Z,102443.00
2019-03-22T00:52:44.894Z,102443.00
2019-03-22T00:55:17.507Z,102449.00
2019-03-22T00:57:51.312Z,102438.00
2019-03-22T01:00:24.349Z,102434.00
2019-03-22T01:03:00.096Z,102438.00
2019-03-22T01:05:32.667Z,102438.00
2019-03-22T01:08:05.239Z,102433.00
2019-03-22T01:10:37.783Z,102444.00
2019-03-22T01:13:10.022Z,102455.00
2019-03-22T01:15:42.372Z,102462.00
2019-03-22T01:18:14.631Z,102461.00
2019-03-22T01:20:46.914Z,102455.00
2019-03-22T01:23:19.181Z,102464.00
2019-03-22T01:25:51.443Z,102464.00
2019-03-22T01:28:23.654Z,102460.00
2019-03-22T01:30:55.910Z,102472.00
2019-03-22T01:33:28.159Z,102468.00
2019-03-22T01:36:00.774Z,102462.00
2019-03-22T01:38:33.213Z,102465.00
2019-03-22T01:41:05.484Z,102459.00
2019-03-22T01:43:37.808Z,102455.00
2019-03-22T01:46:10.085Z,102454.00
2019-03-22T01:48:42.393Z,102447.00
2019-03-22T01:51:14.766Z,102445.00
2019-03-22T01:53:47.103Z,102442.00
2019-03-22T01:56:19.401Z,102433.00
2019-03-22T01:58:51.693Z,102442.00
2019-03-22T02:01:23.961Z,102428.00
2019-03-22T02:03:56.248Z,102433.00
2019-03-22T02:06:28.570Z,102437.00
2019-03-22T02:09:00.821Z,102437.00
2019-03-22T02:11:33.658Z,102439.00
2019-03-22T02:14:06.031Z,102433.00
2019-03-22T02:16:38.371Z,102441.00
2019-03-22T02:19:11.195Z,102443.00
2019-03-22T02:21:45.571Z,102449.00
2019-03-22T02:24:17.803Z,102448.00
2019-03-22T02:26:50.097Z,102436.00
2019-03-22T02:29:22.353Z,102437.00
2019-03-22T02:31:54.665Z,102425.00
2019-03-22T02:34:26.895Z,102439.00
2019-03-22T02:37:00.271Z,102434.00
2019-03-22T02:39:32.693Z,102447.00
2019-03-22T02:42:05.303Z,102450.00
2019-03-22T02:44:37.578Z,102452.00
2019-03-22T02:47:09.849Z,102451.00
2019-03-22T02:49:42.132Z,102447.00
2019-03-22T02:52:14.385Z,102440.00
2019-03-22T02:54:46.699Z,102434.00
2019-03-22T02:57:19.003Z,102435.00
2019-03-22T02:59:51.234Z,102441.00
2019-03-22T03:02:23.500Z,102442.00
2019-03-22T03:04:55.797Z,102435.00
2019-03-22T03:07:28.081Z,102430.00
2019-03-22T03:10:00.411Z,102428.00
2019-03-22T03:12:32.738Z,102429.00
2019-03-22T03:15:06.064Z,102431.00
2019-03-22T03:17:38.527Z,102421.00
2019-03-22T03:20:11.991Z,102427.00
2019-03-22T03:22:44.274Z,102417.00
2019-03-22T03:25:18.737Z,102420.00
2019-03-22T03:27:51.031Z,102414.00
2019-03-22T03:30:24.952Z,102418.00
2019-03-22T03:32:57.216Z,102416.00
2019-03-22T03:35:29.551Z,102421.00
2019-03-22T03:38:01.826Z,102419.00
2019-03-22T03:40:34.088Z,102422.00
2019-03-22T03:43:07.359Z,102433.00
2019-03-22T03:45:39.753Z,102429.00
2019-03-22T03:48:12.150Z,102422.00
2019-03-22T03:50:44.386Z,102416.00
2019-03-22T03:53:16.739Z,102421.00
2019-03-22T03:55:48.964Z,102406.00
2019-03-22T03:58:21.259Z,102412.00
2019-03-22T04:00:53.658Z,102417.00
2019-03-22T04:03:25.931Z,102423.00
2019-03-22T04:05:58.246Z,102415.00
2019-03-22T04:08:30.528Z,102413.00
2019-03-22T04:11:02.759Z,102408.00
2019-03-22T04:13:35.064Z,102410.00
2019-03-22T04:16:07.344Z,102410.00
2019-03-22T04:18:39.738Z,102431.00
2019-03-22T04:21:11.985Z,102419.00
2019-03-22T04:23:44.272Z,102413.00
2019-03-22T04:26:16.564Z,102422.00
2019-03-22T04:28:48.874Z,102429.00
2019-03-22T04:31:21.306Z,102441.00
2019-03-22T04:33:53.871Z,102443.00
2019-03-22T04:36:26.151Z,102450.00
2019-03-22T04:38:58.636Z,102449.00
2019-03-22T04:41:30.907Z,102445.00
2019-03-22T04:44:03.208Z,102447.00
2019-03-22T04:46:37.030Z,102456.00
2019-03-22T04:49:10.800Z,102449.00
2019-03-22T04:51:44.278Z,102454.00
2019-03-22T04:54:20.099Z,102453.00
2019-03-22T04:56:54.960Z,102456.00
2019-03-22T04:59:28.041Z,102466.00
2019-03-22T05:02:03.391Z,102466.00
2019-03-22T05:04:39.189Z,102470.00
2019-03-22T05:07:11.838Z,102467.00
2019-03-22T05:09:45.919Z,102470.00
2019-03-22T05:12:21.456Z,102467.00
2019-03-22T05:14:57.151Z,102466.00
2019-03-22T05:17:32.458Z,102468.00
2019-03-22T05:20:07.045Z,102467.00
2019-03-22T05:22:41.445Z,102473.00
2019-03-22T05:25:15.960Z,102473.00
2019-03-22T05:27:51.211Z,102478.00
2019-03-22T05:31:36.864Z,102492.00
2019-03-22T05:34:09.308Z,102481.00
2019-03-22T05:36:42.562Z,102488.00
2019-03-22T05:39:14.864Z,102479.00
2019-03-22T05:41:47.187Z,102489.00
2019-03-22T05:44:19.470Z,102499.00
2019-03-22T05:46:51.739Z,102499.00
2019-03-22T05:49:24.038Z,102503.00
2019-03-22T05:51:56.427Z,102505.00
2019-03-22T05:54:28.645Z,102510.00
2019-03-22T05:57:01.040Z,102512.00
2019-03-22T05:59:41.919Z,102513.00
2019-03-22T06:02:07.394Z,102524.00
2019-03-22T06:04:39.730Z,102533.00
2019-03-22T06:07:12.147Z,102531.00
2019-03-22T06:09:44.438Z,102538.00
2019-03-22T06:12:16.826Z,102528.00
2019-03-22T06:14:49.118Z,102521.00
2019-03-22T06:17:21.425Z,102525.00
2019-03-22T06:19:53.645Z,102526.00
2019-03-22T06:22:25.933Z,102524.00
2019-03-22T06:24:58.284Z,102521.00
2019-03-22T06:27:30.665Z,102518.00
2019-03-22T06:30:02.952Z,102511.00
2019-03-22T06:32:36.325Z,102512.00
2019-03-22T06:35:08.772Z,102515.00
2019-03-22T06:37:42.682Z,102504.00
2019-03-22T06:40:15.191Z,102502.00
2019-03-22T06:42:47.513Z,102505.00
2019-03-22T06:45:19.783Z,102509.00
2019-03-22T06:47:52.076Z,102504.00
2019-03-22T06:50:24.401Z,102509.00
2019-03-22T06:52:56.744Z,102498.00
2019-03-22T06:55:29.023Z,102494.00
2019-03-22T06:58:01.378Z,102504.00
2019-03-22T07:00:33.697Z,102491.00
2019-03-22T07:03:05.984Z,102497.00
2019-03-22T07:05:38.211Z,102487.00
2019-03-22T07:08:10.531Z,102493.00
2019-03-22T07:10:42.774Z,102491.00
2019-03-22T07:13:34.157Z,102501.00
2019-03-22T07:16:06.427Z,102502.00
2019-03-22T07:18:38.755Z,102496.00
2019-03-22T07:21:10.993Z,102502.00
2019-03-22T07:23:43.321Z,102499.00
2019-03-22T07:26:15.539Z,102500.00
2019-03-22T07:28:47.771Z,102499.00
2019-03-22T07:31:19.967Z,102508.00
2019-03-22T07:33:52.265Z,102499.00
2019-03-22T07:36:25.459Z,102505.00
2019-03-22T07:38:57.677Z,102514.00
2019-03-22T07:41:29.913Z,102506.00
2019-03-22T07:44:02.172Z,102505.00
2019-03-22T07:46:34.413Z,102500.00
2019-03-22T07:49:06.835Z,102502.00
2019-03-22T07:51:39.127Z,102503.00
2019-03-22T07:54:11.375Z,102498.00
2019-03-22T07:56:43.593Z,102496.00
2019-03-22T07:59:15.929Z,102493.00
2019-03-22T08:01:48.276Z,102491.00
2019-03-22T08:04:20.583Z,102486.00
2019-03-22T08:06:52.812Z,102492.00
2019-03-22T08:09:26.124Z,102487.00
2019-03-22T08:11:58.347Z,102487.00
2019-03-22T08:14:30.629Z,102486.00
2019-03-22T08:17:02.879Z,102493.00
2019-03-22T08:19:35.174Z,102491.00
2019-03-22T08:22:07.401Z,102489.00
2019-03-22T08:24:39.630Z,102489.00
2019-03-22T08:27:12.040Z,102494.00
2019-03-22T08:29:44.356Z,102480.00
2019-03-22T08:32:16.722Z,102484.00
2019-03-22T08:34:49.131Z,102482.00
2019-03-22T08:38:49.537Z,102478.00
2019-03-22T08:54:08.818Z,102486.00
2019-03-22T09:00:22.544Z,102472.00
2019-03-22T09:02:54.796Z,102473.00
2019-03-22T09:05:27.149Z,102473.00
2019-03-22T09:07:59.591Z,102473.00
2019-03-22T09:10:31.818Z,102459.00
2019-03-22T09:13:04.243Z,102456.00
2019-03-22T09:15:41.223Z,102458.00
2019-03-22T09:18:10.576Z,102465.00
2019-03-22T09:20:42.918Z,102459.00
2019-03-22T09:23:15.376Z,102461.00
2019-03-22T09:25:47.856Z,102457.00
2019-03-22T09:28:20.220Z,102454.00
2019-03-22T09:30:52.558Z,102455.00
2019-03-22T09:42:54.486Z,102443.00
2019-03-22T09:45:26.803Z,102434.00
2019-03-22T09:47:59.024Z,102436.00
2019-03-22T09:50:31.229Z,102446.00
2019-03-22T09:53:03.477Z,102437.00
2019-03-22T09:55:35.799Z,102427.00
2019-03-22T09:58:08.216Z,102426.00
2019-03-22T10:00:40.388Z,102430.00
2019-03-22T10:03:12.659Z,102430.00
2019-03-22T10:05:45.056Z,102424.00
2019-03-22T10:08:17.452Z,102417.00
2019-03-22T10:10:49.783Z,102404.00
2019-03-22T10:13:22.148Z,102405.00
2019-03-22T10:15:54.570Z,102403.00
2019-03-22T10:18:26.869Z,102404.00
2019-03-22T10:20:59.195Z,102407.00
2019-03-22T10:23:31.507Z,102402.00
2019-03-22T10:26:06.126Z,102398.00
2019-03-22T10:28:38.549Z,102387.00
2019-03-22T10:31:10.819Z,102395.00
2019-03-22T10:33:43.124Z,102398.00
2019-03-22T10:36:15.344Z,102391.00
2019-03-22T10:38:50.347Z,102396.00
2019-03-22T10:41:21.690Z,102373.00
2019-03-22T10:43:54.265Z,102377.00
2019-03-22T10:46:26.500Z,102381.00
2019-03-22T10:48:58.878Z,102387.00
2019-03-22T10:51:31.143Z,102382.00
2019-03-22T10:54:03.422Z,102372.00
2019-03-22T10:56:35.632Z,102362.00
2019-03-22T10:59:07.880Z,102359.00
2019-03-22T11:01:48.594Z,102361.00
2019-03-22T11:04:14.147Z,102352.00
2019-03-22T11:06:46.375Z,102351.00
2019-03-22T11:09:19.606Z,102344.00
2019-03-22T11:11:51.906Z,102340.00
2019-03-22T11:14:24.647Z,102332.00
2019-03-22T11:16:56.891Z,102339.00
2019-03-22T11:19:29.194Z,102336.00
2019-03-22T11:22:01.470Z,102338.00
2019-03-22T11:24:33.755Z,102322.00
2019-03-22T11:27:06.278Z,102316.00
2019-03-22T11:29:38.584Z,102318.00
2019-03-22T11:32:12.809Z,102319.00
2019-03-22T11:34:45.730Z,102313.00
2019-03-22T11:37:18.183Z,102315.00
2019-03-22T11:39:50.707Z,102301.00
2019-03-22T11:42:22.900Z,102305.00
2019-03-22T11:44:55.248Z,102313.00
2019-03-22T11:47:27.506Z,102313.00
2019-03-22T11:49:59.784Z,102305.00
2019-03-22T11:52:32.571Z,102301.00
2019-03-22T11:55:08.028Z,102306.00
2019-03-22T11:57:40.329Z,102297.00
2019-03-22T12:00:18.359Z,102291.00
2019-03-22T12:02:50.980Z,102288.00
2019-03-22T12:05:24.362Z,102287.00
2019-03-22T12:07:58.425Z,102286.00
2019-03-22T12:10:30.701Z,102281.00
2019-03-22T12:13:03.358Z,102284.00
2019-03-22T12:15:35.790Z,102278.00
2019-03-22T12:18:08.277Z,102278.00
2019-03-22T12:20:46.927Z,102276.00
2019-03-22T12:23:19.358Z,102271.00
2019-03-22T12:25:51.978Z,102266.00
2019-03-22T12:28:24.449Z,102253.00
2019-03-22T12:30:58.220Z,102248.00
2019-03-22T12:33:30.821Z,102251.00
2019-03-22T12:36:03.124Z,102246.00
2019-03-22T12:38:35.489Z,102242.00
2019-03-22T12:41:07.919Z,102234.00
2019-03-22T12:43:40.265Z,102233.00
2019-03-22T12:46:12.798Z,102225.00
2019-03-22T12:48:45.139Z,102230.00
2019-03-22T12:51:17.496Z,102225.00
2019-03-22T12:53:50.010Z,102213.00
2019-03-22T12:56:22.412Z,102208.00
2019-03-22T12:58:54.658Z,102212.00
2019-03-22T13:01:27.027Z,102205.00
2019-03-22T13:03:59.344Z,102210.00
2019-03-22T13:06:31.769Z,102204.00
2019-03-22T13:09:06.267Z,102208.00
2019-03-22T13:11:38.625Z,102197.00
2019-03-22T13:14:10.939Z,102192.00
2019-03-22T13:16:43.359Z,102184.00
2019-03-22T13:19:15.713Z,102167.00
2019-03-22T13:21:48.210Z,102181.00
2019-03-22T13:24:20.532Z,102172.00
2019-03-22T13:26:52.918Z,102176.00
2019-03-22T13:29:25.193Z,102160.00
2019-03-22T13:31:57.596Z,102163.00
2019-03-22T13:34:29.882Z,102149.00
2019-03-22T13:37:02.262Z,102143.00
2019-03-22T13:39:34.571Z,102142.00
2019-03-22T13:42:06.890Z,102141.00
2019-03-22T13:44:39.243Z,102139.00
2019-03-22T13:47:11.567Z,102138.00
2019-03-22T13:49:43.960Z,102139.00
2019-03-22T13:52:16.303Z,102131.00
2019-03-22T13:54:48.624Z,102116.00
2019-03-22T13:57:20.955Z,102122.00
2019-03-22T13:59:53.573Z,102120.00
2019-03-22T14:02:25.976Z,102115.00
2019-03-22T14:04:58.216Z,102103.00
2019-03-22T14:07:30.514Z,102101.00
2019-03-22T14:10:03.031Z,102094.00
2019-03-22T14:12:37.224Z,102090.00
2019-03-22T14:15:10.531Z,102087.00
2019-03-22T14:17:43.019Z,102060.00
2019-03-22T14:20:15.257Z,102085.00
2019-03-22T14:22:48.067Z,102085.00
2019-03-22T14:25:20.695Z,102083.00
2019-03-22T14:27:53.610Z,102081.00
2019-03-22T14:30:25.852Z,102083.00
2019-03-22T14:32:58.367Z,102074.00
2019-03-22T14:35:31.220Z,102069.00
2019-03-22T14:38:03.630Z,102074.00
2019-03-22T14:40:35.935Z,102069.00
2019-03-22T14:43:08.212Z,102057.00
2019-03-22T14:45:40.565Z,102052.00
2019-03-22T14:48:13.023Z,102050.00
2019-03-22T14:50:46.429Z,102043.00
2019-03-22T14:53:18.717Z,102037.00
2019-03-22T14:55:51.152Z,102034.00
2019-03-22T14:58:23.519Z,102039.00
2019-03-22T15:00:55.813Z,102021.00
2019-03-22T15:03:28.679Z,102017.00
2019-03-22T15:06:01.047Z,102009.00
2019-03-22T15:08:33.412Z,102010.00
2019-03-22T15:11:05.700Z,101995.00
2019-03-22T15:13:46.769Z,101998.00
2019-03-22T15:16:44.098Z,101989.00
2019-03-22T15:19:32.995Z,101976.00
2019-03-22T15:22:23.103Z,101982.00
2019-03-22T15:25:14.550Z,101974.00
2019-03-22T15:28:04.728Z,101976.00
2019-03-22T15:30:54.830Z,101971.00
2019-03-22T15:33:47.533Z,101957.00
2019-03-22T15:36:38.787Z,101955.00
2019-03-22T15:39:29.340Z,101949.00
2019-03-22T15:42:02.124Z,101954.00
2019-03-22T15:44:34.412Z,101952.00
2019-03-22T15:47:06.878Z,101950.00
2019-03-22T15:49:39.380Z,101946.00
2019-03-22T15:52:11.834Z,101946.00
2019-03-22T15:54:44.224Z,101944.00
2019-03-22T15:57:16.805Z,101946.00
2019-03-22T15:59:49.161Z,101953.00
2019-03-22T16:02:21.648Z,101940.00
2019-03-22T16:04:54.018Z,101931.00
2019-03-22T16:07:26.405Z,101936.00
2019-03-22T16:09:58.837Z,101930.00
2019-03-22T16:12:31.200Z,101924.00
2019-03-22T16:15:03.566Z,101921.00
2019-03-22T16:17:35.936Z,101918.00
2019-03-22T16:20:09.518Z,101915.00
2019-03-22T16:22:41.857Z,101919.00
2019-03-22T16:25:14.637Z,101919.00
2019-03-22T16:27:47.028Z,101919.00
2019-03-22T16:30:19.899Z,101918.00
2019-03-22T16:32:52.172Z,101911.00
2019-03-22T16:35:24.454Z,101905.00
2019-03-22T16:37:56.723Z,101904.00
2019-03-22T16:40:29.032Z,101909.00
2019-03-22T16:43:01.398Z,101897.00
2019-03-22T16:45:46.009Z,101894.00
2019-03-22T16:48:18.349Z,101895.00
2019-03-22T16:50:50.838Z,101891.00
2019-03-22T16:53:23.165Z,101892.00
2019-03-22T16:55:55.691Z,101893.00
2019-03-22T16:58:27.970Z,101881.00
2019-03-22T17:01:00.320Z,101884.00
2019-03-22T17:03:32.894Z,101886.00
2019-03-22T17:06:05.343Z,101882.00
2019-03-22T17:08:37.634Z,101886.00
2019-03-22T17:11:09.900Z,101890.00
2019-03-22T17:13:42.384Z,101889.00
2019-03-22T17:16:14.722Z,101878.00
2019-03-22T17:18:47.126Z,101880.00
2019-03-22T17:21:19.447Z,101886.00
2019-03-22T17:23:51.783Z,101885.00
2019-03-22T17:26:24.133Z,101888.00
2019-03-22T17:28:56.446Z,101883.00
2019-03-22T17:31:28.770Z,101883.00
2019-03-22T17:34:01.092Z,101882.00
2019-03-22T17:36:34.708Z,101886.00
2019-03-22T17:39:08.936Z,101884.00
2019-03-22T17:41:41.380Z,101881.00
2019-03-22T17:44:13.696Z,101884.00
2019-03-22T17:46:46.007Z,101887.00
2019-03-22T17:49:18.388Z,101889.00
2019-03-22T17:51:50.841Z,101888.00
2019-03-22T17:54:23.147Z,101885.00
2019-03-22T17:56:55.461Z,101890.00
2019-03-22T17:59:27.737Z,101882.00
2019-03-22T18:02:00.251Z,101889.00
2019-03-22T18:04:33.882Z,101889.00
2019-03-22T18:07:06.173Z,101886.00
2019-03-22T18:09:38.588Z,101889.00
2019-03-22T18:12:10.999Z,101882.00
2019-03-22T18:14:43.364Z,101891.00
2019-03-22T18:17:15.727Z,101893.00
2019-03-22T18:19:48.067Z,101891.00
2019-03-22T18:22:20.545Z,101890.00
2019-03-22T18:24:53.003Z,101897.00
2019-03-22T18:27:26.388Z,101886.00
2019-03-22T18:29:58.787Z,101894.00
2019-03-22T18:32:31.193Z,101892.00
2019-03-22T18:35:03.582Z,101888.00
2019-03-22T18:37:37.496Z,101892.00
2019-03-22T18:40:10.180Z,101887.00
2019-03-22T18:42:42.588Z,101893.00
2019-03-22T18:45:15.309Z,101896.00
2019-03-22T18:47:47.840Z,101893.00
2019-03-22T18:50:20.956Z,101895.00
2019-03-22T18:53:03.691Z,101892.00
2019-03-22T18:55:35.988Z,101899.00
2019-03-22T18:58:08.350Z,101899.00
2019-03-22T19:00:40.754Z,101888.00
2019-03-22T19:03:13.104Z,101890.00
2019-03-22T19:05:45.540Z,101878.00
2019-03-22T19:08:17.956Z,101881.00
2019-03-22T19:10:50.322Z,101880.00
2019-03-22T19:13:30.406Z,101883.00
2019-03-22T19:15:56.891Z,101882.00
2019-03-22T19:18:30.240Z,101880.00
2019-03-22T19:21:02.501Z,101874.00
2019-03-22T19:23:34.800Z,101874.00
2019-03-22T19:26:07.053Z,101885.00
2019-03-22T19:28:39.342Z,101878.00
2019-03-22T19:31:11.567Z,101884.00
2019-03-22T19:33:44.110Z,101888.00
2019-03-22T19:36:16.443Z,101885.00
2019-03-22T19:38:48.718Z,101886.00
2019-03-22T19:41:21.129Z,101883.00
2019-03-22T19:43:53.497Z,101878.00
2019-03-22T19:46:25.926Z,101872.00
2019-03-22T19:48:58.212Z,101842.00
2019-03-22T19:51:30.482Z,101869.00
2019-03-22T19:54:02.842Z,101878.00
2019-03-22T19:56:35.191Z,101874.00
2019-03-22T19:59:07.541Z,101874.00
2019-03-22T20:01:39.802Z,101872.00
2019-03-22T20:04:12.233Z,101872.00
2019-03-22T20:06:45.546Z,101869.00
2019-03-22T20:09:17.926Z,101869.00
2019-03-22T20:11:51.766Z,101750.00
2019-03-22T20:14:24.032Z,101870.00
2019-03-22T20:16:56.373Z,101869.00
2019-03-22T20:19:28.675Z,101864.00
2019-03-22T20:22:00.977Z,101870.00
2019-03-22T20:24:33.310Z,101871.00
2019-03-22T20:27:05.578Z,101860.00
2019-03-22T20:29:40.013Z,101855.00
2019-03-22T20:32:11.964Z,101858.00
2019-03-22T20:34:44.232Z,101860.00
2019-03-22T20:37:16.483Z,101856.00
2019-03-22T20:39:48.831Z,101848.00
2019-03-22T20:42:21.263Z,101854.00
2019-03-22T20:44:53.718Z,101851.00
2019-03-22T20:47:26.101Z,101848.00
2019-03-22T20:49:58.538Z,101850.00
2019-03-22T20:52:30.835Z,101845.00
2019-03-22T20:55:03.154Z,101844.00
2019-03-22T20:57:36.549Z,101847.00
2019-03-22T21:00:09.491Z,101839.00
2019-03-22T21:02:41.941Z,101841.00
2019-03-22T21:05:14.287Z,101844.00
2019-03-22T21:07:46.648Z,101848.00
2019-03-22T21:10:19.006Z,101839.00
2019-03-22T21:12:51.336Z,101841.00
2019-03-22T21:15:24.819Z,101838.00
2019-03-22T21:17:57.351Z,101825.00
2019-03-22T21:20:29.680Z,101836.00
2019-03-22T21:23:02.037Z,101828.00
2019-03-22T21:25:35.875Z,101821.00
2019-03-22T21:28:08.188Z,101818.00
2019-03-22T21:30:41.338Z,101823.00
2019-03-22T21:33:13.778Z,101817.00
2019-03-22T21:35:46.135Z,101814.00
2019-03-22T21:38:18.481Z,101814.00
2019-03-22T21:40:50.694Z,101807.00
2019-03-22T21:43:23.016Z,101802.00
2019-03-22T21:45:55.305Z,101797.00
2019-03-22T21:48:27.579Z,101795.00
2019-03-22T21:50:59.889Z,101794.00
2019-03-22T21:53:32.201Z,101795.00
2019-03-22T21:56:04.562Z,101796.00
2019-03-22T21:58:36.949Z,101782.00
2019-03-22T22:01:09.266Z,101788.00
2019-03-22T22:03:41.710Z,101781.00
2019-03-22T22:06:14.032Z,101774.00
2019-03-22T22:08:46.406Z,101769.00
2019-03-22T22:11:18.728Z,101766.00
2019-03-22T22:13:51.066Z,101767.00
2019-03-22T22:16:34.509Z,101755.00
2019-03-22T22:19:08.113Z,101752.00
2019-03-22T22:21:40.612Z,101756.00
2019-03-22T22:24:12.857Z,101752.00
2019-03-22T22:26:45.167Z,101755.00
2019-03-22T22:29:17.422Z,101735.00
2019-03-22T22:31:49.666Z,101732.00
2019-03-22T22:34:21.905Z,101737.00
2019-03-22T22:36:54.166Z,101738.00
2019-03-22T22:39:26.433Z,101737.00
2019-03-22T22:41:58.830Z,101722.00
2019-03-22T22:44:31.259Z,101676.00
2019-03-22T22:47:04.597Z,101718.00
2019-03-22T22:49:36.918Z,101714.00
2019-03-22T22:52:09.366Z,101714.00
2019-03-22T22:54:41.657Z,101719.00
2019-03-22T22:57:14.100Z,101707.00
2019-03-22T22:59:46.402Z,101702.00
2019-03-22T23:02:18.846Z,101703.00
2019-03-22T23:04:51.148Z,101706.00
2019-03-22T23:07:23.498Z,101700.00
2019-03-22T23:09:55.810Z,101698.00
2019-03-22T23:12:28.082Z,101694.00
2019-03-22T23:15:01.982Z,101698.00
2019-03-22T23:17:36.034Z,101691.00
2019-03-22T23:20:11.679Z,101694.00
2019-03-22T23:22:43.992Z,101695.00
2019-03-22T23:25:16.276Z,101691.00
2019-03-22T23:27:48.692Z,101690.00
2019-03-22T23:30:22.023Z,101683.00
2019-03-22T23:32:55.071Z,101685.00
2019-03-22T23:35:27.377Z,101684.00
2019-03-22T23:37:59.681Z,101686.00
2019-03-22T23:40:32.181Z,101683.00
2019-03-22T23:43:04.444Z,101681.00
2019-03-22T23:45:36.729Z,101685.00
2019-03-22T23:48:08.981Z,101676.00
2019-03-22T23:50:41.247Z,101679.00
2019-03-22T23:53:13.500Z,101667.00
2019-03-22T23:55:45.745Z,101671.00
2019-03-22T23:58:18.052Z,101671.00
